sensor_id;sensor_type;location;lat;lon;timestamp;pressure;altitude;pressure_sealevel;temperature;humidity
10127;BME280;13080;42.608;23.362;2023-03-26T00:02:02;153173.59;;;8.19;79.87
10127;BME280;13080;42.608;23.362;2023-03-26T00:04:29;153137.25;;;8.05;81.66
10127;BME280;13080;42.608;23.362;2023-03-26T00:06:58;153124.31;;;8.00;81.21
10127;BME280;13080;42.608;23.362;2023-03-26T00:09:25;153102.25;;;7.91;82.46
10127;BME280;13080;42.608;23.362;2023-03-26T00:11:54;153089.31;;;7.86;82.52
10127;BME280;13080;42.608;23.362;2023-03-26T00:14:21;153088.03;;;7.85;83.24
10127;BME280;13080;42.608;23.362;2023-03-26T00:16:47;153064.72;;;7.76;83.15
10127;BME280;13080;42.608;23.362;2023-03-26T00:19:15;153046.56;;;7.69;83.75
10127;BME280;13080;42.608;23.362;2023-03-26T00:21:42;153034.88;;;7.64;83.70
10127;BME280;13080;42.608;23.362;2023-03-26T00:24:11;153037.47;;;7.65;84.13
10127;BME280;13080;42.608;23.362;2023-03-26T00:26:39;153024.53;;;7.60;84.45
10127;BME280;13080;42.608;23.362;2023-03-26T00:29:06;153014.16;;;7.56;84.61
10127;BME280;13080;42.608;23.362;2023-03-26T00:31:34;152994.69;;;7.48;85.08
10127;BME280;13080;42.608;23.362;2023-03-26T00:34:04;152993.41;;;7.48;85.96
10127;BME280;13080;42.608;23.362;2023-03-26T00:36:32;152962.34;;;7.36;85.85
10127;BME280;13080;42.608;23.362;2023-03-26T00:39:00;152964.91;;;7.37;85.95
10127;BME280;13080;42.608;23.362;2023-03-26T00:41:30;152946.78;;;7.29;86.80
10127;BME280;13080;42.608;23.362;2023-03-26T00:43:57;152944.16;;;7.28;86.46
10127;BME280;13080;42.608;23.362;2023-03-26T00:46:26;152922.19;;;7.20;87.00
10127;BME280;13080;42.608;23.362;2023-03-26T00:48:53;152919.56;;;7.19;87.35
10127;BME280;13080;42.608;23.362;2023-03-26T00:51:23;152887.19;;;7.06;87.66
10127;BME280;13080;42.608;23.362;2023-03-26T00:53:51;152904.03;;;7.13;88.02
10127;BME280;13080;42.608;23.362;2023-03-26T00:56:18;152880.72;;;7.03;88.08
10127;BME280;13080;42.608;23.362;2023-03-26T00:58:45;152878.13;;;7.02;88.10
10127;BME280;13080;42.608;23.362;2023-03-26T01:01:17;152885.88;;;7.05;87.69
10127;BME280;13080;42.608;23.362;2023-03-26T01:03:45;152904.03;;;7.13;86.97
10127;BME280;13080;42.608;23.362;2023-03-26T01:06:13;152915.66;;;7.17;86.11
10127;BME280;13080;42.608;23.362;2023-03-26T01:08:46;152918.28;;;7.18;86.10
10127;BME280;13080;42.608;23.362;2023-03-26T01:11:17;152923.47;;;7.20;86.28
10127;BME280;13080;42.608;23.362;2023-03-26T01:13:47;152910.53;;;7.15;85.46
10127;BME280;13080;42.608;23.362;2023-03-26T01:16:19;152914.38;;;7.17;85.69
10127;BME280;13080;42.608;23.362;2023-03-26T01:18:47;152920.84;;;7.19;86.23
10127;BME280;13080;42.608;23.362;2023-03-26T01:21:20;152901.44;;;7.12;86.28
10127;BME280;13080;42.608;23.362;2023-03-26T01:23:55;152857.41;;;6.94;87.49
10127;BME280;13080;42.608;23.362;2023-03-26T01:26:34;152857.41;;;6.94;87.69
10127;BME280;13080;42.608;23.362;2023-03-26T01:29:05;152847.03;;;6.90;87.36
10127;BME280;13080;42.608;23.362;2023-03-26T01:31:38;152827.63;;;6.82;88.45
10127;BME280;13080;42.608;23.362;2023-03-26T01:34:13;152835.38;;;6.85;88.10
10127;BME280;13080;42.608;23.362;2023-03-26T01:36:48;152812.06;;;6.76;88.81
10127;BME280;13080;42.608;23.362;2023-03-26T01:39:24;152815.97;;;6.78;88.90
10127;BME280;13080;42.608;23.362;2023-03-26T01:41:57;152821.16;;;6.80;89.46
10127;BME280;13080;42.608;23.362;2023-03-26T01:44:33;152834.09;;;6.85;89.17
10127;BME280;13080;42.608;23.362;2023-03-26T01:47:04;152834.09;;;6.85;89.27
10127;BME280;13080;42.608;23.362;2023-03-26T01:49:31;152819.88;;;6.79;89.90
10127;BME280;13080;42.608;23.362;2023-03-26T01:51:59;152819.88;;;6.79;90.25
10127;BME280;13080;42.608;23.362;2023-03-26T01:54:28;152813.34;;;6.77;90.36
10127;BME280;13080;42.608;23.362;2023-03-26T01:57:04;152818.53;;;6.79;90.87
10127;BME280;13080;42.608;23.362;2023-03-26T01:59:47;152809.50;;;6.75;91.32
10127;BME280;13080;42.608;23.362;2023-03-26T02:02:22;152841.84;;;6.88;91.25
10127;BME280;13080;42.608;23.362;2023-03-26T02:04:54;152825.00;;;6.81;91.47
10127;BME280;13080;42.608;23.362;2023-03-26T02:07:25;152821.16;;;6.80;92.00
10127;BME280;13080;42.608;23.362;2023-03-26T02:09:57;152830.19;;;6.83;91.96
10127;BME280;13080;42.608;23.362;2023-03-26T02:12:24;152858.69;;;6.95;91.31
10127;BME280;13080;42.608;23.362;2023-03-26T02:14:52;152839.28;;;6.87;91.90
10127;BME280;13080;42.608;23.362;2023-03-26T02:17:19;152860.00;;;6.95;91.66
10127;BME280;13080;42.608;23.362;2023-03-26T02:19:48;152847.03;;;6.90;91.61
10127;BME280;13080;42.608;23.362;2023-03-26T02:22:16;152831.53;;;6.84;91.92
10127;BME280;13080;42.608;23.362;2023-03-26T02:24:43;152845.75;;;6.90;91.21
10127;BME280;13080;42.608;23.362;2023-03-26T02:27:11;152847.03;;;6.90;91.67
10127;BME280;13080;42.608;23.362;2023-03-26T02:29:39;152827.63;;;6.82;91.32
10127;BME280;13080;42.608;23.362;2023-03-26T02:32:08;152817.25;;;6.78;90.31
10127;BME280;13080;42.608;23.362;2023-03-26T02:34:37;152813.34;;;6.77;90.90
10127;BME280;13080;42.608;23.362;2023-03-26T02:37:04;152821.16;;;6.80;89.47
10127;BME280;13080;42.608;23.362;2023-03-26T02:39:31;152841.84;;;6.88;88.80
10127;BME280;13080;42.608;23.362;2023-03-26T02:41:58;152839.28;;;6.87;88.98
10127;BME280;13080;42.608;23.362;2023-03-26T02:44:26;152849.66;;;6.91;88.26
10127;BME280;13080;42.608;23.362;2023-03-26T02:46:53;152853.50;;;6.93;88.61
10127;BME280;13080;42.608;23.362;2023-03-26T02:49:20;152869.06;;;6.99;87.36
10127;BME280;13080;42.608;23.362;2023-03-26T02:51:46;152896.25;;;7.10;86.41
10127;BME280;13080;42.608;23.362;2023-03-26T02:54:13;152902.72;;;7.12;87.02
10127;BME280;13080;42.608;23.362;2023-03-26T02:56:40;152917.00;;;7.18;87.08
10127;BME280;13080;42.608;23.362;2023-03-26T02:59:07;152913.09;;;7.16;86.56
10127;BME280;13080;42.608;23.362;2023-03-26T03:01:35;152888.50;;;7.06;86.89
10127;BME280;13080;42.608;23.362;2023-03-26T03:04:07;152856.13;;;6.94;87.17
10127;BME280;13080;42.608;23.362;2023-03-26T03:06:33;152827.63;;;6.82;86.96
10127;BME280;13080;42.608;23.362;2023-03-26T03:09:02;152825.00;;;6.81;86.25
10127;BME280;13080;42.608;23.362;2023-03-26T03:11:29;152818.53;;;6.79;86.71
10127;BME280;13080;42.608;23.362;2023-03-26T03:13:56;152808.16;;;6.75;87.49
10127;BME280;13080;42.608;23.362;2023-03-26T03:16:23;152804.31;;;6.73;88.15
10127;BME280;13080;42.608;23.362;2023-03-26T03:18:51;152812.06;;;6.76;88.24
10127;BME280;13080;42.608;23.362;2023-03-26T03:21:21;152814.69;;;6.77;88.48
10127;BME280;13080;42.608;23.362;2023-03-26T03:23:48;152800.41;;;6.72;88.58
10127;BME280;13080;42.608;23.362;2023-03-26T03:26:16;152783.59;;;6.65;89.57
10127;BME280;13080;42.608;23.362;2023-03-26T03:28:46;152768.03;;;6.59;89.86
10127;BME280;13080;42.608;23.362;2023-03-26T03:31:13;152737.00;;;6.47;89.72
10127;BME280;13080;42.608;23.362;2023-03-26T03:33:40;152720.16;;;6.40;90.71
10127;BME280;13080;42.608;23.362;2023-03-26T03:36:09;152714.97;;;6.38;90.57
10127;BME280;13080;42.608;23.362;2023-03-26T03:38:37;152683.94;;;6.26;91.46
10127;BME280;13080;42.608;23.362;2023-03-26T03:41:04;152676.13;;;6.22;92.01
10127;BME280;13080;42.608;23.362;2023-03-26T03:43:31;152678.75;;;6.23;91.96
10127;BME280;13080;42.608;23.362;2023-03-26T03:45:58;152674.84;;;6.22;92.20
10127;BME280;13080;42.608;23.362;2023-03-26T03:48:25;152691.69;;;6.29;91.57
10127;BME280;13080;42.608;23.362;2023-03-26T03:50:52;152677.41;;;6.23;92.07
10127;BME280;13080;42.608;23.362;2023-03-26T03:53:21;152656.72;;;6.15;92.48
10127;BME280;13080;42.608;23.362;2023-03-26T03:55:50;152641.19;;;6.09;92.70
10127;BME280;13080;42.608;23.362;2023-03-26T03:58:18;152652.84;;;6.13;92.46
10127;BME280;13080;42.608;23.362;2023-03-26T04:00:47;152626.94;;;6.03;92.88
10127;BME280;13080;42.608;23.362;2023-03-26T04:03:14;152639.91;;;6.08;92.14
10127;BME280;13080;42.608;23.362;2023-03-26T04:05:41;152624.38;;;6.02;92.26
10127;BME280;13080;42.608;23.362;2023-03-26T04:08:14;152634.72;;;6.06;92.20
10127;BME280;13080;42.608;23.362;2023-03-26T04:10:42;152616.63;;;5.99;92.65
10127;BME280;13080;42.608;23.362;2023-03-26T04:13:09;152604.97;;;5.94;92.21
10127;BME280;13080;42.608;23.362;2023-03-26T04:15:36;152623.09;;;6.01;91.54
10127;BME280;13080;42.608;23.362;2023-03-26T04:18:03;152630.84;;;6.04;91.30
10127;BME280;13080;42.608;23.362;2023-03-26T04:20:34;152623.09;;;6.01;91.73
10127;BME280;13080;42.608;23.362;2023-03-26T04:23:01;152614.00;;;5.98;91.70
10127;BME280;13080;42.608;23.362;2023-03-26T04:25:28;152607.53;;;5.95;92.67
10127;BME280;13080;42.608;23.362;2023-03-26T04:27:59;152607.53;;;5.95;93.29
10127;BME280;13080;42.608;23.362;2023-03-26T04:30:31;152623.09;;;6.01;93.10
10127;BME280;13080;42.608;23.362;2023-03-26T04:32:58;152604.97;;;5.94;93.66
10127;BME280;13080;42.608;23.362;2023-03-26T04:35:30;152636.00;;;6.07;92.79
10127;BME280;13080;42.608;23.362;2023-03-26T04:37:59;152619.19;;;6.00;93.67
10127;BME280;13080;42.608;23.362;2023-03-26T04:40:26;152617.91;;;5.99;93.23
10127;BME280;13080;42.608;23.362;2023-03-26T04:42:54;152616.63;;;5.99;92.90
10127;BME280;13080;42.608;23.362;2023-03-26T04:45:28;152612.72;;;5.97;93.09
10127;BME280;13080;42.608;23.362;2023-03-26T04:47:55;152597.13;;;5.91;93.32
10127;BME280;13080;42.608;23.362;2023-03-26T04:50:23;152607.53;;;5.95;92.96
10127;BME280;13080;42.608;23.362;2023-03-26T04:52:52;152593.28;;;5.90;93.61
10127;BME280;13080;42.608;23.362;2023-03-26T04:55:23;152607.53;;;5.95;93.08
10127;BME280;13080;42.608;23.362;2023-03-26T04:57:54;152590.66;;;5.89;92.66
10127;BME280;13080;42.608;23.362;2023-03-26T05:00:24;152617.91;;;5.99;91.70
10127;BME280;13080;42.608;23.362;2023-03-26T05:02:54;152623.09;;;6.01;89.63
10127;BME280;13080;42.608;23.362;2023-03-26T05:05:22;152637.28;;;6.07;87.89
10127;BME280;13080;42.608;23.362;2023-03-26T05:07:49;152636.00;;;6.07;87.67
10127;BME280;13080;42.608;23.362;2023-03-26T05:10:16;152636.00;;;6.07;86.54
10127;BME280;13080;42.608;23.362;2023-03-26T05:12:45;152625.66;;;6.02;87.03
10127;BME280;13080;42.608;23.362;2023-03-26T05:15:12;152607.53;;;5.95;86.85
10127;BME280;13080;42.608;23.362;2023-03-26T05:17:40;152632.13;;;6.05;86.51
10127;BME280;13080;42.608;23.362;2023-03-26T05:20:14;152654.13;;;6.14;85.33
10127;BME280;13080;42.608;23.362;2023-03-26T05:22:41;152704.59;;;6.34;84.43
10127;BME280;13080;42.608;23.362;2023-03-26T05:25:08;152734.38;;;6.45;83.07
10127;BME280;13080;42.608;23.362;2023-03-26T05:27:35;152764.19;;;6.57;82.33
10127;BME280;13080;42.608;23.362;2023-03-26T05:30:03;152795.22;;;6.70;81.52
10127;BME280;13080;42.608;23.362;2023-03-26T05:32:30;152814.69;;;6.77;80.71
10127;BME280;13080;42.608;23.362;2023-03-26T05:34:58;152825.00;;;6.81;81.76
10127;BME280;13080;42.608;23.362;2023-03-26T05:37:27;152830.19;;;6.83;81.40
10127;BME280;13080;42.608;23.362;2023-03-26T05:39:55;152852.22;;;6.92;82.15
10127;BME280;13080;42.608;23.362;2023-03-26T05:42:23;152861.31;;;6.96;81.83
10127;BME280;13080;42.608;23.362;2023-03-26T05:44:49;152896.25;;;7.10;81.03
10127;BME280;13080;42.608;23.362;2023-03-26T05:47:16;152911.81;;;7.16;80.01
10127;BME280;13080;42.608;23.362;2023-03-26T05:49:43;152911.81;;;7.16;80.42
10127;BME280;13080;42.608;23.362;2023-03-26T05:52:11;152941.59;;;7.27;79.34
10127;BME280;13080;42.608;23.362;2023-03-26T05:54:42;152932.50;;;7.24;80.79
10127;BME280;13080;42.608;23.362;2023-03-26T05:57:08;152968.81;;;7.38;78.63
10127;BME280;13080;42.608;23.362;2023-03-26T05:59:35;152986.94;;;7.45;78.39
10127;BME280;13080;42.608;23.362;2023-03-26T06:02:02;152980.47;;;7.43;77.98
10127;BME280;13080;42.608;23.362;2023-03-26T06:04:29;152996.03;;;7.49;78.62
10127;BME280;13080;42.608;23.362;2023-03-26T06:06:56;152983.03;;;7.44;79.18
10127;BME280;13080;42.608;23.362;2023-03-26T06:09:23;153021.94;;;7.59;78.96
10127;BME280;13080;42.608;23.362;2023-03-26T06:11:51;152998.59;;;7.50;79.54
10127;BME280;13080;42.608;23.362;2023-03-26T06:14:18;153023.22;;;7.60;77.97
10127;BME280;13080;42.608;23.362;2023-03-26T06:16:45;153024.53;;;7.60;77.91
10127;BME280;13080;42.608;23.362;2023-03-26T06:19:12;153047.84;;;7.69;76.46
10127;BME280;13080;42.608;23.362;2023-03-26T06:21:38;153062.09;;;7.75;74.85
10127;BME280;13080;42.608;23.362;2023-03-26T06:24:06;153045.25;;;7.68;74.57
10127;BME280;13080;42.608;23.362;2023-03-26T06:26:32;153058.25;;;7.74;75.48
10127;BME280;13080;42.608;23.362;2023-03-26T06:29:01;153080.22;;;7.82;76.04
10127;BME280;13080;42.608;23.362;2023-03-26T06:31:28;153086.75;;;7.85;74.88
10127;BME280;13080;42.608;23.362;2023-03-26T06:33:54;153102.25;;;7.91;75.80
10127;BME280;13080;42.608;23.362;2023-03-26T06:36:21;153113.94;;;7.96;76.45
10127;BME280;13080;42.608;23.362;2023-03-26T06:38:48;153115.25;;;7.96;75.80
10127;BME280;13080;42.608;23.362;2023-03-26T06:41:15;153125.59;;;8.00;75.61
10127;BME280;13080;42.608;23.362;2023-03-26T06:43:41;153086.75;;;7.85;75.52
10127;BME280;13080;42.608;23.362;2023-03-26T06:46:10;153091.94;;;7.87;76.13
10127;BME280;13080;42.608;23.362;2023-03-26T06:48:37;153116.53;;;7.97;76.04
10127;BME280;13080;42.608;23.362;2023-03-26T06:51:05;153103.59;;;7.91;74.71
10127;BME280;13080;42.608;23.362;2023-03-26T06:53:31;153130.78;;;8.02;74.92
10127;BME280;13080;42.608;23.362;2023-03-26T06:55:58;153159.28;;;8.13;75.03
10127;BME280;13080;42.608;23.362;2023-03-26T06:58:25;153156.72;;;8.12;74.59
10127;BME280;13080;42.608;23.362;2023-03-26T07:00:52;153189.16;;;8.25;73.76
10127;BME280;13080;42.608;23.362;2023-03-26T07:03:21;153221.53;;;8.38;72.60
10127;BME280;13080;42.608;23.362;2023-03-26T07:05:48;153218.97;;;8.37;72.97
10127;BME280;13080;42.608;23.362;2023-03-26T07:08:15;153178.78;;;8.21;72.14
10127;BME280;13080;42.608;23.362;2023-03-26T07:10:42;153178.78;;;8.21;74.42
10127;BME280;13080;42.608;23.362;2023-03-26T07:13:08;153187.81;;;8.25;72.41
10127;BME280;13080;42.608;23.362;2023-03-26T07:15:35;153173.59;;;8.19;72.13
10127;BME280;13080;42.608;23.362;2023-03-26T07:18:02;153193.00;;;8.27;72.67
10127;BME280;13080;42.608;23.362;2023-03-26T07:20:30;153218.97;;;8.37;72.55
10127;BME280;13080;42.608;23.362;2023-03-26T07:22:58;153204.66;;;8.31;74.17
10127;BME280;13080;42.608;23.362;2023-03-26T07:25:25;153246.25;;;8.48;72.44
10127;BME280;13080;42.608;23.362;2023-03-26T07:27:59;153264.38;;;8.55;73.17
10127;BME280;13080;42.608;23.362;2023-03-26T07:30:34;153305.88;;;8.71;71.31
10127;BME280;13080;42.608;23.362;2023-03-26T07:33:08;153314.97;;;8.75;70.04
10127;BME280;13080;42.608;23.362;2023-03-26T07:35:42;153324.03;;;8.79;69.43
10127;BME280;13080;42.608;23.362;2023-03-26T07:38:26;153324.03;;;8.79;70.01
10127;BME280;13080;42.608;23.362;2023-03-26T07:41:03;153346.06;;;8.87;69.25
10127;BME280;13080;42.608;23.362;2023-03-26T07:43:40;153338.31;;;8.84;68.92
10127;BME280;13080;42.608;23.362;2023-03-26T07:46:13;153391.47;;;9.05;69.16
10127;BME280;13080;42.608;23.362;2023-03-26T07:48:42;153348.69;;;8.88;66.90
10127;BME280;13080;42.608;23.362;2023-03-26T07:51:14;153360.38;;;8.93;67.63
10127;BME280;13080;42.608;23.362;2023-03-26T07:53:43;153404.47;;;9.10;68.18
10127;BME280;13080;42.608;23.362;2023-03-26T07:56:13;153434.31;;;9.22;67.53
10127;BME280;13080;42.608;23.362;2023-03-26T07:58:53;153478.44;;;9.40;66.97
10127;BME280;13080;42.608;23.362;2023-03-26T08:01:26;153535.53;;;9.62;64.91
10127;BME280;13080;42.608;23.362;2023-03-26T08:06:47;153547.22;;;9.67;61.54
10127;BME280;13080;42.608;23.362;2023-03-26T08:09:24;153561.47;;;9.72;58.99
10127;BME280;13080;42.608;23.362;2023-03-26T08:11:56;153557.59;;;9.71;58.04
10127;BME280;13080;42.608;23.362;2023-03-26T08:14:32;153554.97;;;9.70;59.76
10127;BME280;13080;42.608;23.362;2023-03-26T08:17:09;153569.28;;;9.75;58.80
10127;BME280;13080;42.608;23.362;2023-03-26T08:19:49;153625.06;;;9.97;56.68
10127;BME280;13080;42.608;23.362;2023-03-26T08:22:20;153665.34;;;10.13;56.03
10127;BME280;13080;42.608;23.362;2023-03-26T08:25:03;153652.34;;;10.08;54.99
10127;BME280;13080;42.608;23.362;2023-03-26T08:27:36;153684.81;;;10.21;56.00
10127;BME280;13080;42.608;23.362;2023-03-26T08:30:09;153713.44;;;10.32;53.43
10127;BME280;13080;42.608;23.362;2023-03-26T08:32:37;153686.09;;;10.22;54.84
10127;BME280;13080;42.608;23.362;2023-03-26T08:35:05;153751.09;;;10.47;55.35
10127;BME280;13080;42.608;23.362;2023-03-26T08:37:35;153702.97;;;10.28;53.98
10127;BME280;13080;42.608;23.362;2023-03-26T08:40:01;153704.31;;;10.29;53.77
10127;BME280;13080;42.608;23.362;2023-03-26T08:42:56;153713.44;;;10.32;54.06
10127;BME280;13080;42.608;23.362;2023-03-26T08:45:51;153718.63;;;10.34;53.53
10127;BME280;13080;42.608;23.362;2023-03-26T08:48:55;153717.34;;;10.34;52.87
10127;BME280;13080;42.608;23.362;2023-03-26T08:51:58;153788.72;;;10.62;55.65
10127;BME280;13080;42.608;23.362;2023-03-26T08:54:52;153805.63;;;10.69;56.14
10127;BME280;13080;42.608;23.362;2023-03-26T08:57:44;153795.22;;;10.65;53.20
10127;BME280;13080;42.608;23.362;2023-03-26T09:00:26;153838.09;;;10.81;52.63
10127;BME280;13080;42.608;23.362;2023-03-26T09:15:49;153886.16;;;11.00;51.29
10127;BME280;13080;42.608;23.362;2023-03-26T09:18:51;153957.63;;;11.29;53.09
10127;BME280;13080;42.608;23.362;2023-03-26T09:21:42;154003.13;;;11.47;51.06
10127;BME280;13080;42.608;23.362;2023-03-26T09:27:34;153973.25;;;11.35;51.19
10127;BME280;13080;42.608;23.362;2023-03-26T09:30:25;153962.84;;;11.31;50.88
10127;BME280;13080;42.608;23.362;2023-03-26T09:33:22;153953.72;;;11.27;51.46
10127;BME280;13080;42.608;23.362;2023-03-26T09:36:07;153973.25;;;11.35;50.32
10127;BME280;13080;42.608;23.362;2023-03-26T09:38:42;153965.41;;;11.32;50.42
10127;BME280;13080;42.608;23.362;2023-03-26T09:41:14;153986.22;;;11.40;48.42
10127;BME280;13080;42.608;23.362;2023-03-26T09:43:46;153969.31;;;11.33;47.81
10127;BME280;13080;42.608;23.362;2023-03-26T09:46:21;154005.69;;;11.48;48.51
10127;BME280;13080;42.608;23.362;2023-03-26T09:49:19;154039.50;;;11.61;47.61
10127;BME280;13080;42.608;23.362;2023-03-26T09:52:04;154012.25;;;11.50;47.01
10127;BME280;13080;42.608;23.362;2023-03-26T09:54:55;153965.41;;;11.32;47.61
10127;BME280;13080;42.608;23.362;2023-03-26T09:57:40;153968.03;;;11.33;46.90
10127;BME280;13080;42.608;23.362;2023-03-26T10:00:25;153982.31;;;11.38;48.43
10127;BME280;13080;42.608;23.362;2023-03-26T10:03:18;154056.41;;;11.68;49.23
10127;BME280;13080;42.608;23.362;2023-03-26T10:05:57;154057.72;;;11.68;46.22
10127;BME280;13080;42.608;23.362;2023-03-26T10:08:40;153999.22;;;11.45;46.88
10127;BME280;13080;42.608;23.362;2023-03-26T10:11:17;154055.09;;;11.67;46.53
10127;BME280;13080;42.608;23.362;2023-03-26T10:14:00;154018.72;;;11.53;46.62
10127;BME280;13080;42.608;23.362;2023-03-26T10:16:37;154017.41;;;11.52;46.25
10127;BME280;13080;42.608;23.362;2023-03-26T10:19:19;154025.22;;;11.55;46.23
10127;BME280;13080;42.608;23.362;2023-03-26T10:21:55;154051.19;;;11.65;46.34
10127;BME280;13080;42.608;23.362;2023-03-26T10:24:41;154057.72;;;11.68;46.59
10127;BME280;13080;42.608;23.362;2023-03-26T10:27:22;154091.47;;;11.81;44.43
10127;BME280;13080;42.608;23.362;2023-03-26T10:32:49;154010.91;;;11.50;42.37
10127;BME280;13080;42.608;23.362;2023-03-26T10:35:25;154048.63;;;11.64;41.60
10127;BME280;13080;42.608;23.362;2023-03-26T10:38:12;154070.72;;;11.73;42.42
10127;BME280;13080;42.608;23.362;2023-03-26T10:40:47;154134.47;;;11.98;41.41
10127;BME280;13080;42.608;23.362;2023-03-26T10:46:27;154129.25;;;11.96;39.55
10127;BME280;13080;42.608;23.362;2023-03-26T10:49:26;154129.25;;;11.96;39.54
10127;BME280;13080;42.608;23.362;2023-03-26T10:51:58;154140.94;;;12.01;41.18
10127;BME280;13080;42.608;23.362;2023-03-26T10:54:36;154177.38;;;12.15;39.28
10127;BME280;13080;42.608;23.362;2023-03-26T10:57:11;154179.97;;;12.16;37.79
10127;BME280;13080;42.608;23.362;2023-03-26T10:59:41;154209.88;;;12.28;40.15
10127;BME280;13080;42.608;23.362;2023-03-26T11:02:23;154229.41;;;12.36;38.38
10127;BME280;13080;42.608;23.362;2023-03-26T11:04:54;154209.88;;;12.28;39.03
10127;BME280;13080;42.608;23.362;2023-03-26T11:07:32;154185.16;;;12.18;38.86
10127;BME280;13080;42.608;23.362;2023-03-26T11:10:05;154155.28;;;12.06;37.96
10127;BME280;13080;42.608;23.362;2023-03-26T11:12:39;154172.19;;;12.13;37.19
10127;BME280;13080;42.608;23.362;2023-03-26T11:15:20;154199.44;;;12.24;38.01
10127;BME280;13080;42.608;23.362;2023-03-26T11:17:59;154206.00;;;12.26;37.76
10127;BME280;13080;42.608;23.362;2023-03-26T11:20:36;154207.28;;;12.27;35.87
10127;BME280;13080;42.608;23.362;2023-03-26T11:23:19;154178.69;;;12.16;35.72
10127;BME280;13080;42.608;23.362;2023-03-26T11:26:00;154191.66;;;12.21;37.20
10127;BME280;13080;42.608;23.362;2023-03-26T11:28:41;154229.41;;;12.36;34.89
10127;BME280;13080;42.608;23.362;2023-03-26T11:31:18;154258.00;;;12.47;35.98
10127;BME280;13080;42.608;23.362;2023-03-26T11:33:51;154268.41;;;12.51;33.79
10127;BME280;13080;42.608;23.362;2023-03-26T11:36:20;154311.31;;;12.68;36.76
10127;BME280;13080;42.608;23.362;2023-03-26T11:38:50;154341.22;;;12.80;34.19
10127;BME280;13080;42.608;23.362;2023-03-26T11:41:20;154334.72;;;12.77;35.57
10127;BME280;13080;42.608;23.362;2023-03-26T11:43:51;154330.84;;;12.76;36.02
10127;BME280;13080;42.608;23.362;2023-03-26T11:46:21;154337.34;;;12.78;35.70
10127;BME280;13080;42.608;23.362;2023-03-26T11:48:52;154323.03;;;12.73;36.67
10127;BME280;13080;42.608;23.362;2023-03-26T11:51:26;154320.44;;;12.72;37.45
10127;BME280;13080;42.608;23.362;2023-03-26T11:53:55;154356.84;;;12.86;35.24
10127;BME280;13080;42.608;23.362;2023-03-26T11:56:27;154332.16;;;12.76;36.86
10127;BME280;13080;42.608;23.362;2023-03-26T11:58:59;154349.06;;;12.83;36.31
10127;BME280;13080;42.608;23.362;2023-03-26T12:01:40;154360.78;;;12.87;35.35
10127;BME280;13080;42.608;23.362;2023-03-26T12:04:10;154369.84;;;12.91;36.98
10127;BME280;13080;42.608;23.362;2023-03-26T12:06:38;154338.66;;;12.79;36.28
10127;BME280;13080;42.608;23.362;2023-03-26T12:09:15;154380.25;;;12.95;36.27
10127;BME280;13080;42.608;23.362;2023-03-26T12:11:43;154367.25;;;12.90;36.57
10127;BME280;13080;42.608;23.362;2023-03-26T12:14:16;154360.78;;;12.87;36.98
10127;BME280;13080;42.608;23.362;2023-03-26T12:16:57;154408.88;;;13.06;36.25
10127;BME280;13080;42.608;23.362;2023-03-26T12:19:25;154405.00;;;13.05;36.20
10127;BME280;13080;42.608;23.362;2023-03-26T12:21:53;154429.72;;;13.15;36.85
10127;BME280;13080;42.608;23.362;2023-03-26T12:24:26;154441.44;;;13.19;35.28
10127;BME280;13080;42.608;23.362;2023-03-26T12:26:59;154444.00;;;13.20;38.21
10127;BME280;13080;42.608;23.362;2023-03-26T12:29:29;154476.59;;;13.33;38.53
10127;BME280;13080;42.608;23.362;2023-03-26T12:32:04;154467.47;;;13.29;36.42
10127;BME280;13080;42.608;23.362;2023-03-26T12:34:34;154483.09;;;13.36;36.76
10127;BME280;13080;42.608;23.362;2023-03-26T12:37:03;154507.88;;;13.45;35.32
10127;BME280;13080;42.608;23.362;2023-03-26T12:39:34;154481.81;;;13.35;34.43
10127;BME280;13080;42.608;23.362;2023-03-26T12:42:04;154464.91;;;13.28;34.81
10127;BME280;13080;42.608;23.362;2023-03-26T12:44:43;154476.59;;;13.33;33.94
10127;BME280;13080;42.608;23.362;2023-03-26T12:47:18;154487.03;;;13.37;35.76
10127;BME280;13080;42.608;23.362;2023-03-26T12:49:47;154494.81;;;13.40;35.32
10127;BME280;13080;42.608;23.362;2023-03-26T12:52:37;154502.66;;;13.43;32.99
10127;BME280;13080;42.608;23.362;2023-03-26T12:55:18;154511.75;;;13.47;32.81
10127;BME280;13080;42.608;23.362;2023-03-26T12:57:55;154487.03;;;13.37;31.69
10127;BME280;13080;42.608;23.362;2023-03-26T13:00:35;154505.25;;;13.44;33.04
10127;BME280;13080;42.608;23.362;2023-03-26T13:03:15;154514.38;;;13.48;31.09
10127;BME280;13080;42.608;23.362;2023-03-26T13:05:57;154532.59;;;13.55;33.04
10127;BME280;13080;42.608;23.362;2023-03-26T13:08:44;154565.13;;;13.68;31.26
10127;BME280;13080;42.608;23.362;2023-03-26T13:11:21;154556.00;;;13.64;29.95
10127;BME280;13080;42.608;23.362;2023-03-26T13:14:04;154587.28;;;13.77;30.76
10127;BME280;13080;42.608;23.362;2023-03-26T13:16:45;154596.34;;;13.80;31.30
10127;BME280;13080;42.608;23.362;2023-03-26T13:19:15;154610.69;;;13.86;30.71
10127;BME280;13080;42.608;23.362;2023-03-26T13:21:55;154626.28;;;13.92;32.50
10127;BME280;13080;42.608;23.362;2023-03-26T13:24:34;154621.06;;;13.90;32.20
10127;BME280;13080;42.608;23.362;2023-03-26T13:27:15;154632.84;;;13.95;32.81
10127;BME280;13080;42.608;23.362;2023-03-26T13:29:53;154614.56;;;13.87;29.00
10127;BME280;13080;42.608;23.362;2023-03-26T13:32:31;154606.78;;;13.84;29.73
10127;BME280;13080;42.608;23.362;2023-03-26T13:35:10;154604.16;;;13.83;26.87
10127;BME280;13080;42.608;23.362;2023-03-26T13:37:44;154552.09;;;13.63;26.37